sensor_id;sensor_type;location;lat;lon;timestamp;temperature;humidity
23188;DHT22;11762;59.878;17.686;2023-03-07T00:02:04;-9.60;99.90
23188;DHT22;11762;59.878;17.686;2023-03-07T00:04:32;-9.80;99.90
23188;DHT22;11762;59.878;17.686;2023-03-07T00:07:00;-9.90;99.90
23188;DHT22;11762;59.878;17.686;2023-03-07T00:09:27;-9.90;99.90
23188;DHT22;11762;59.878;17.686;2023-03-07T00:11:54;-10.00;99.90
23188;DHT22;11762;59.878;17.686;2023-03-07T00:14:21;-10.10;99.90
23188;DHT22;11762;59.878;17.686;2023-03-07T00:16:49;-10.20;99.90
23188;DHT22;11762;59.878;17.686;2023-03-07T00:19:16;-10.30;99.90
23188;DHT22;11762;59.878;17.686;2023-03-07T00:21:45;-10.30;99.90
23188;DHT22;11762;59.878;17.686;2023-03-07T00:24:12;-10.30;99.90
23188;DHT22;11762;59.878;17.686;2023-03-07T00:26:39;-10.30;99.90
23188;DHT22;11762;59.878;17.686;2023-03-07T00:29:08;-10.20;99.90
23188;DHT22;11762;59.878;17.686;2023-03-07T00:31:35;-10.20;99.90
23188;DHT22;11762;59.878;17.686;2023-03-07T00:34:03;-10.20;99.90
23188;DHT22;11762;59.878;17.686;2023-03-07T00:36:30;-10.20;99.90
23188;DHT22;11762;59.878;17.686;2023-03-07T00:38:59;-10.30;99.90
23188;DHT22;11762;59.878;17.686;2023-03-07T00:41:27;-10.30;99.90
23188;DHT22;11762;59.878;17.686;2023-03-07T00:43:55;-10.40;99.90
23188;DHT22;11762;59.878;17.686;2023-03-07T00:46:23;-10.40;99.90
23188;DHT22;11762;59.878;17.686;2023-03-07T00:48:50;-10.40;99.90
23188;DHT22;11762;59.878;17.686;2023-03-07T00:51:19;-10.40;99.90
23188;DHT22;11762;59.878;17.686;2023-03-07T00:53:46;-10.50;99.90
23188;DHT22;11762;59.878;17.686;2023-03-07T00:56:16;-10.50;99.90
23188;DHT22;11762;59.878;17.686;2023-03-07T00:58:44;-10.60;99.90
23188;DHT22;11762;59.878;17.686;2023-03-07T01:01:13;-10.60;99.90
23188;DHT22;11762;59.878;17.686;2023-03-07T01:03:40;-10.60;99.90
23188;DHT22;11762;59.878;17.686;2023-03-07T01:06:11;-10.60;99.90
23188;DHT22;11762;59.878;17.686;2023-03-07T01:08:38;-10.50;99.90
23188;DHT22;11762;59.878;17.686;2023-03-07T01:11:07;-10.50;99.90
23188;DHT22;11762;59.878;17.686;2023-03-07T01:13:36;-10.40;99.90
23188;DHT22;11762;59.878;17.686;2023-03-07T01:16:07;-10.40;99.90
23188;DHT22;11762;59.878;17.686;2023-03-07T01:18:34;-10.30;99.90
23188;DHT22;11762;59.878;17.686;2023-03-07T01:21:10;-10.40;99.90
23188;DHT22;11762;59.878;17.686;2023-03-07T01:23:37;-10.40;99.90
23188;DHT22;11762;59.878;17.686;2023-03-07T01:26:04;-10.40;99.90
23188;DHT22;11762;59.878;17.686;2023-03-07T01:28:31;-10.50;99.90
23188;DHT22;11762;59.878;17.686;2023-03-07T01:31:00;-10.50;99.90
23188;DHT22;11762;59.878;17.686;2023-03-07T01:33:27;-10.60;99.90
23188;DHT22;11762;59.878;17.686;2023-03-07T01:35:54;-10.70;99.90
23188;DHT22;11762;59.878;17.686;2023-03-07T01:38:21;-10.70;99.90
23188;DHT22;11762;59.878;17.686;2023-03-07T01:40:48;-10.70;99.90
23188;DHT22;11762;59.878;17.686;2023-03-07T01:43:21;-10.70;99.90
23188;DHT22;11762;59.878;17.686;2023-03-07T01:46:24;-10.80;99.90
23188;DHT22;11762;59.878;17.686;2023-03-07T01:48:56;-10.80;99.90
23188;DHT22;11762;59.878;17.686;2023-03-07T01:51:24;-10.90;99.90
23188;DHT22;11762;59.878;17.686;2023-03-07T01:53:52;-11.00;99.90
23188;DHT22;11762;59.878;17.686;2023-03-07T01:56:22;-11.00;99.90
23188;DHT22;11762;59.878;17.686;2023-03-07T01:58:49;-11.00;99.90
23188;DHT22;11762;59.878;17.686;2023-03-07T02:01:17;-11.00;99.90
23188;DHT22;11762;59.878;17.686;2023-03-07T02:03:49;-11.10;99.90
23188;DHT22;11762;59.878;17.686;2023-03-07T02:06:17;-11.10;99.90
23188;DHT22;11762;59.878;17.686;2023-03-07T02:08:47;-11.20;99.90
23188;DHT22;11762;59.878;17.686;2023-03-07T02:11:15;-11.30;99.90
23188;DHT22;11762;59.878;17.686;2023-03-07T02:13:42;-11.40;99.90
23188;DHT22;11762;59.878;17.686;2023-03-07T02:16:09;-11.50;99.90
23188;DHT22;11762;59.878;17.686;2023-03-07T02:18:41;-11.50;99.90
23188;DHT22;11762;59.878;17.686;2023-03-07T02:21:15;-11.50;99.90
23188;DHT22;11762;59.878;17.686;2023-03-07T02:23:52;-11.50;99.90
23188;DHT22;11762;59.878;17.686;2023-03-07T02:26:31;-11.50;99.90
23188;DHT22;11762;59.878;17.686;2023-03-07T02:28:59;-11.40;99.90
23188;DHT22;11762;59.878;17.686;2023-03-07T02:31:27;-11.40;99.90
23188;DHT22;11762;59.878;17.686;2023-03-07T02:33:54;-11.30;99.90
23188;DHT22;11762;59.878;17.686;2023-03-07T02:36:23;-11.30;99.90
23188;DHT22;11762;59.878;17.686;2023-03-07T02:38:51;-11.20;99.90
23188;DHT22;11762;59.878;17.686;2023-03-07T02:41:24;-11.20;99.90
23188;DHT22;11762;59.878;17.686;2023-03-07T02:43:53;-11.20;99.90
23188;DHT22;11762;59.878;17.686;2023-03-07T02:46:20;-11.10;99.90
23188;DHT22;11762;59.878;17.686;2023-03-07T02:48:48;-11.00;99.90
23188;DHT22;11762;59.878;17.686;2023-03-07T02:51:15;-11.00;99.90
23188;DHT22;11762;59.878;17.686;2023-03-07T02:53:42;-11.00;99.90
23188;DHT22;11762;59.878;17.686;2023-03-07T02:56:10;-11.00;99.90
23188;DHT22;11762;59.878;17.686;2023-03-07T02:58:37;-11.00;99.90
23188;DHT22;11762;59.878;17.686;2023-03-07T03:01:06;-11.00;99.90
23188;DHT22;11762;59.878;17.686;2023-03-07T03:03:33;-11.30;99.90
23188;DHT22;11762;59.878;17.686;2023-03-07T03:06:00;-11.30;99.90
23188;DHT22;11762;59.878;17.686;2023-03-07T03:08:27;-11.40;99.90
23188;DHT22;11762;59.878;17.686;2023-03-07T03:10:54;-11.40;99.90
23188;DHT22;11762;59.878;17.686;2023-03-07T03:13:21;-11.30;99.90
23188;DHT22;11762;59.878;17.686;2023-03-07T03:15:48;-11.30;99.90
23188;DHT22;11762;59.878;17.686;2023-03-07T03:18:21;-11.30;99.90
23188;DHT22;11762;59.878;17.686;2023-03-07T03:20:49;-11.30;99.90
23188;DHT22;11762;59.878;17.686;2023-03-07T03:23:16;-11.40;99.90
23188;DHT22;11762;59.878;17.686;2023-03-07T03:25:43;-11.40;99.90
23188;DHT22;11762;59.878;17.686;2023-03-07T03:28:10;-11.50;99.90
23188;DHT22;11762;59.878;17.686;2023-03-07T03:30:38;-11.50;99.90
23188;DHT22;11762;59.878;17.686;2023-03-07T03:33:05;-11.50;99.90
23188;DHT22;11762;59.878;17.686;2023-03-07T03:35:33;-11.50;99.90
23188;DHT22;11762;59.878;17.686;2023-03-07T03:38:00;-11.60;99.90
23188;DHT22;11762;59.878;17.686;2023-03-07T03:40:27;-11.60;99.90
23188;DHT22;11762;59.878;17.686;2023-03-07T03:42:55;-11.60;99.90
23188;DHT22;11762;59.878;17.686;2023-03-07T03:45:21;-11.70;99.90
23188;DHT22;11762;59.878;17.686;2023-03-07T03:47:48;-11.80;99.90
23188;DHT22;11762;59.878;17.686;2023-03-07T03:50:16;-11.90;99.90
23188;DHT22;11762;59.878;17.686;2023-03-07T03:52:44;-11.90;99.90
23188;DHT22;11762;59.878;17.686;2023-03-07T03:55:11;-11.90;99.90
23188;DHT22;11762;59.878;17.686;2023-03-07T03:57:38;-11.90;99.90
23188;DHT22;11762;59.878;17.686;2023-03-07T04:00:06;-11.90;99.90
23188;DHT22;11762;59.878;17.686;2023-03-07T04:02:35;-11.90;99.90
23188;DHT22;11762;59.878;17.686;2023-03-07T04:05:02;-11.80;99.90
23188;DHT22;11762;59.878;17.686;2023-03-07T04:07:30;-11.90;99.90
23188;DHT22;11762;59.878;17.686;2023-03-07T04:09:58;-11.90;99.90
23188;DHT22;11762;59.878;17.686;2023-03-07T04:12:26;-11.90;99.90
23188;DHT22;11762;59.878;17.686;2023-03-07T04:14:53;-11.80;99.90
23188;DHT22;11762;59.878;17.686;2023-03-07T04:17:20;-11.80;99.90
23188;DHT22;11762;59.878;17.686;2023-03-07T04:19:47;-11.80;99.90
23188;DHT22;11762;59.878;17.686;2023-03-07T04:22:14;-11.80;99.90
23188;DHT22;11762;59.878;17.686;2023-03-07T04:24:41;-11.80;99.90
23188;DHT22;11762;59.878;17.686;2023-03-07T04:27:11;-11.90;99.90
23188;DHT22;11762;59.878;17.686;2023-03-07T04:29:38;-11.90;99.90
23188;DHT22;11762;59.878;17.686;2023-03-07T04:32:05;-11.90;99.90
23188;DHT22;11762;59.878;17.686;2023-03-07T04:34:32;-12.00;99.90
23188;DHT22;11762;59.878;17.686;2023-03-07T04:36:59;-12.00;99.90
23188;DHT22;11762;59.878;17.686;2023-03-07T04:39:26;-12.00;99.90
23188;DHT22;11762;59.878;17.686;2023-03-07T04:41:53;-12.00;99.90
23188;DHT22;11762;59.878;17.686;2023-03-07T04:44:22;-12.00;99.90
23188;DHT22;11762;59.878;17.686;2023-03-07T04:46:49;-11.90;99.90
23188;DHT22;11762;59.878;17.686;2023-03-07T04:49:16;-11.90;99.90
23188;DHT22;11762;59.878;17.686;2023-03-07T04:51:43;-11.90;99.90
23188;DHT22;11762;59.878;17.686;2023-03-07T04:54:10;-11.80;99.90
23188;DHT22;11762;59.878;17.686;2023-03-07T04:56:37;-11.80;99.90
23188;DHT22;11762;59.878;17.686;2023-03-07T04:59:04;-11.80;99.90
23188;DHT22;11762;59.878;17.686;2023-03-07T05:01:33;-11.80;99.90
23188;DHT22;11762;59.878;17.686;2023-03-07T05:04:00;-11.70;99.90
23188;DHT22;11762;59.878;17.686;2023-03-07T05:06:27;-11.70;99.90
23188;DHT22;11762;59.878;17.686;2023-03-07T05:08:54;-11.60;99.90
23188;DHT22;11762;59.878;17.686;2023-03-07T05:11:21;-11.60;99.90
23188;DHT22;11762;59.878;17.686;2023-03-07T05:13:48;-11.60;99.90
23188;DHT22;11762;59.878;17.686;2023-03-07T05:16:15;-11.50;99.90
23188;DHT22;11762;59.878;17.686;2023-03-07T05:18:44;-11.40;99.90
23188;DHT22;11762;59.878;17.686;2023-03-07T05:21:11;-11.30;99.90
23188;DHT22;11762;59.878;17.686;2023-03-07T05:23:38;-11.20;99.90
23188;DHT22;11762;59.878;17.686;2023-03-07T05:26:05;-11.10;99.90
23188;DHT22;11762;59.878;17.686;2023-03-07T05:28:32;-11.00;99.90
23188;DHT22;11762;59.878;17.686;2023-03-07T05:30:59;-10.90;99.90
23188;DHT22;11762;59.878;17.686;2023-03-07T05:33:26;-10.90;99.90
23188;DHT22;11762;59.878;17.686;2023-03-07T05:35:58;-10.80;99.90
23188;DHT22;11762;59.878;17.686;2023-03-07T05:38:25;-10.80;99.90
23188;DHT22;11762;59.878;17.686;2023-03-07T05:40:52;-10.70;99.90
23188;DHT22;11762;59.878;17.686;2023-03-07T05:43:19;-10.70;99.90
23188;DHT22;11762;59.878;17.686;2023-03-07T05:45:46;-10.80;99.90
23188;DHT22;11762;59.878;17.686;2023-03-07T05:48:13;-10.80;99.90
23188;DHT22;11762;59.878;17.686;2023-03-07T05:50:40;-10.80;99.90
23188;DHT22;11762;59.878;17.686;2023-03-07T05:53:09;-10.80;99.90
23188;DHT22;11762;59.878;17.686;2023-03-07T05:55:36;-10.80;99.90
23188;DHT22;11762;59.878;17.686;2023-03-07T05:58:04;-10.80;99.90
23188;DHT22;11762;59.878;17.686;2023-03-07T06:00:31;-10.80;99.90
23188;DHT22;11762;59.878;17.686;2023-03-07T06:03:00;-10.90;99.90
23188;DHT22;11762;59.878;17.686;2023-03-07T06:05:28;-10.90;99.90
23188;DHT22;11762;59.878;17.686;2023-03-07T06:07:55;-10.90;99.90
23188;DHT22;11762;59.878;17.686;2023-03-07T06:10:23;-10.90;99.90
23188;DHT22;11762;59.878;17.686;2023-03-07T06:12:51;-10.90;99.90
23188;DHT22;11762;59.878;17.686;2023-03-07T06:15:20;-11.00;99.90
23188;DHT22;11762;59.878;17.686;2023-03-07T06:17:47;-11.00;99.90
23188;DHT22;11762;59.878;17.686;2023-03-07T06:20:14;-10.90;99.90
23188;DHT22;11762;59.878;17.686;2023-03-07T06:22:41;-10.90;99.90
23188;DHT22;11762;59.878;17.686;2023-03-07T06:25:09;-10.70;99.90
23188;DHT22;11762;59.878;17.686;2023-03-07T06:27:37;-10.60;99.90
23188;DHT22;11762;59.878;17.686;2023-03-07T06:30:06;-10.60;99.90
23188;DHT22;11762;59.878;17.686;2023-03-07T06:32:33;-10.40;99.90
23188;DHT22;11762;59.878;17.686;2023-03-07T06:35:00;-10.30;99.90
23188;DHT22;11762;59.878;17.686;2023-03-07T06:37:27;-10.10;99.90
23188;DHT22;11762;59.878;17.686;2023-03-07T06:39:54;-9.60;99.90
23188;DHT22;11762;59.878;17.686;2023-03-07T06:42:21;-9.20;99.90
23188;DHT22;11762;59.878;17.686;2023-03-07T06:44:49;-9.00;99.90
23188;DHT22;11762;59.878;17.686;2023-03-07T06:47:16;-9.20;99.90
23188;DHT22;11762;59.878;17.686;2023-03-07T06:49:43;-9.60;99.90
23188;DHT22;11762;59.878;17.686;2023-03-07T06:52:10;-9.90;99.90
23188;DHT22;11762;59.878;17.686;2023-03-07T06:54:37;-10.00;99.90
23188;DHT22;11762;59.878;17.686;2023-03-07T06:57:04;-10.10;99.90
23188;DHT22;11762;59.878;17.686;2023-03-07T06:59:31;-10.10;99.90
23188;DHT22;11762;59.878;17.686;2023-03-07T07:02:02;-10.10;99.90
23188;DHT22;11762;59.878;17.686;2023-03-07T07:04:29;-9.90;99.90
23188;DHT22;11762;59.878;17.686;2023-03-07T07:06:56;-9.80;99.90
23188;DHT22;11762;59.878;17.686;2023-03-07T07:09:23;-9.70;99.90
23188;DHT22;11762;59.878;17.686;2023-03-07T07:11:50;-9.60;99.90
23188;DHT22;11762;59.878;17.686;2023-03-07T07:14:17;-9.50;99.90
23188;DHT22;11762;59.878;17.686;2023-03-07T07:16:44;-9.40;99.90
23188;DHT22;11762;59.878;17.686;2023-03-07T07:19:13;-9.30;99.90
23188;DHT22;11762;59.878;17.686;2023-03-07T07:21:40;-9.20;99.90
23188;DHT22;11762;59.878;17.686;2023-03-07T07:26:37;-9.00;99.90
23188;DHT22;11762;59.878;17.686;2023-03-07T07:29:04;-8.80;99.90
23188;DHT22;11762;59.878;17.686;2023-03-07T07:31:31;-8.70;99.90
23188;DHT22;11762;59.878;17.686;2023-03-07T07:33:58;-8.50;99.90
23188;DHT22;11762;59.878;17.686;2023-03-07T07:36:26;-8.40;99.90
23188;DHT22;11762;59.878;17.686;2023-03-07T07:38:53;-8.30;99.90
23188;DHT22;11762;59.878;17.686;2023-03-07T07:41:20;-8.20;99.90
23188;DHT22;11762;59.878;17.686;2023-03-07T07:43:51;-8.10;99.90
23188;DHT22;11762;59.878;17.686;2023-03-07T07:46:18;-8.00;99.90
23188;DHT22;11762;59.878;17.686;2023-03-07T07:48:45;-8.00;99.90
23188;DHT22;11762;59.878;17.686;2023-03-07T07:51:12;-7.90;99.90
23188;DHT22;11762;59.878;17.686;2023-03-07T07:53:41;-7.80;99.90
23188;DHT22;11762;59.878;17.686;2023-03-07T07:56:08;-7.70;99.90
23188;DHT22;11762;59.878;17.686;2023-03-07T07:58:35;-7.60;99.90
23188;DHT22;11762;59.878;17.686;2023-03-07T08:01:12;-7.50;99.90
23188;DHT22;11762;59.878;17.686;2023-03-07T08:03:40;-7.40;99.90
23188;DHT22;11762;59.878;17.686;2023-03-07T08:06:09;-7.30;99.90
23188;DHT22;11762;59.878;17.686;2023-03-07T08:08:37;-7.20;99.90
23188;DHT22;11762;59.878;17.686;2023-03-07T08:11:05;-7.10;99.90
23188;DHT22;11762;59.878;17.686;2023-03-07T08:13:33;-6.90;99.90
23188;DHT22;11762;59.878;17.686;2023-03-07T08:16:06;-6.70;99.90
23188;DHT22;11762;59.878;17.686;2023-03-07T08:18:33;-6.60;99.90
23188;DHT22;11762;59.878;17.686;2023-03-07T08:21:00;-6.40;99.90
23188;DHT22;11762;59.878;17.686;2023-03-07T08:23:27;-6.20;99.90
23188;DHT22;11762;59.878;17.686;2023-03-07T08:25:54;-6.00;99.90
23188;DHT22;11762;59.878;17.686;2023-03-07T08:28:28;-5.90;99.90
23188;DHT22;11762;59.878;17.686;2023-03-07T08:30:55;-5.70;99.90
23188;DHT22;11762;59.878;17.686;2023-03-07T08:33:22;-5.50;99.90
23188;DHT22;11762;59.878;17.686;2023-03-07T08:35:49;-5.40;99.90
23188;DHT22;11762;59.878;17.686;2023-03-07T08:38:16;-5.30;99.90
23188;DHT22;11762;59.878;17.686;2023-03-07T08:40:43;-5.20;99.90
23188;DHT22;11762;59.878;17.686;2023-03-07T08:43:10;-5.10;99.90
23188;DHT22;11762;59.878;17.686;2023-03-07T08:45:40;-5.00;99.90
23188;DHT22;11762;59.878;17.686;2023-03-07T08:48:08;-4.90;99.90
23188;DHT22;11762;59.878;17.686;2023-03-07T08:50:35;-4.80;99.90
23188;DHT22;11762;59.878;17.686;2023-03-07T08:53:04;-4.70;99.90
23188;DHT22;11762;59.878;17.686;2023-03-07T08:55:34;-4.60;99.90
23188;DHT22;11762;59.878;17.686;2023-03-07T08:58:01;-4.60;99.90
23188;DHT22;11762;59.878;17.686;2023-03-07T09:00:28;-4.50;99.90
23188;DHT22;11762;59.878;17.686;2023-03-07T09:02:57;-4.50;99.90
23188;DHT22;11762;59.878;17.686;2023-03-07T09:05:26;-4.30;99.90
23188;DHT22;11762;59.878;17.686;2023-03-07T09:07:53;-4.20;99.90
23188;DHT22;11762;59.878;17.686;2023-03-07T09:10:20;-4.10;99.90
23188;DHT22;11762;59.878;17.686;2023-03-07T09:12:47;-4.00;99.90
23188;DHT22;11762;59.878;17.686;2023-03-07T09:15:15;-3.90;99.90
23188;DHT22;11762;59.878;17.686;2023-03-07T09:17:43;-3.80;99.90
23188;DHT22;11762;59.878;17.686;2023-03-07T09:20:12;-3.80;99.90
23188;DHT22;11762;59.878;17.686;2023-03-07T09:22:40;-3.70;99.90
23188;DHT22;11762;59.878;17.686;2023-03-07T09:25:08;-3.60;99.90
23188;DHT22;11762;59.878;17.686;2023-03-07T09:27:35;-3.50;99.90
23188;DHT22;11762;59.878;17.686;2023-03-07T09:30:03;-3.40;99.90
23188;DHT22;11762;59.878;17.686;2023-03-07T09:32:31;-3.40;99.90
23188;DHT22;11762;59.878;17.686;2023-03-07T09:34:58;-3.50;99.90
23188;DHT22;11762;59.878;17.686;2023-03-07T09:37:27;-3.40;99.90
23188;DHT22;11762;59.878;17.686;2023-03-07T09:39:54;-3.40;99.90
23188;DHT22;11762;59.878;17.686;2023-03-07T09:42:25;-3.30;99.90
23188;DHT22;11762;59.878;17.686;2023-03-07T09:45:07;-3.30;99.90
23188;DHT22;11762;59.878;17.686;2023-03-07T09:47:49;-3.20;99.90
23188;DHT22;11762;59.878;17.686;2023-03-07T09:50:27;-3.20;99.90
23188;DHT22;11762;59.878;17.686;2023-03-07T09:53:01;-3.10;99.90
23188;DHT22;11762;59.878;17.686;2023-03-07T09:55:29;-3.00;99.90
23188;DHT22;11762;59.878;17.686;2023-03-07T09:57:59;-3.00;99.90
23188;DHT22;11762;59.878;17.686;2023-03-07T10:00:30;-2.90;99.90
23188;DHT22;11762;59.878;17.686;2023-03-07T10:03:06;-2.80;99.90
23188;DHT22;11762;59.878;17.686;2023-03-07T10:05:38;-2.70;99.90
23188;DHT22;11762;59.878;17.686;2023-03-07T10:08:10;-2.70;99.90
23188;DHT22;11762;59.878;17.686;2023-03-07T10:10:41;-2.60;99.90
23188;DHT22;11762;59.878;17.686;2023-03-07T10:13:31;-2.50;99.90
23188;DHT22;11762;59.878;17.686;2023-03-07T10:16:00;-2.40;99.90
23188;DHT22;11762;59.878;17.686;2023-03-07T10:21:21;-2.20;99.90
23188;DHT22;11762;59.878;17.686;2023-03-07T10:24:16;-2.50;99.90
23188;DHT22;11762;59.878;17.686;2023-03-07T10:26:50;-2.40;99.90
23188;DHT22;11762;59.878;17.686;2023-03-07T10:29:25;-2.30;99.90
23188;DHT22;11762;59.878;17.686;2023-03-07T10:31:55;-2.30;99.90
23188;DHT22;11762;59.878;17.686;2023-03-07T10:34:25;-2.20;99.90
23188;DHT22;11762;59.878;17.686;2023-03-07T10:36:56;-2.10;99.90
23188;DHT22;11762;59.878;17.686;2023-03-07T10:39:29;-2.10;99.90
23188;DHT22;11762;59.878;17.686;2023-03-07T10:41:58;-2.00;99.90
23188;DHT22;11762;59.878;17.686;2023-03-07T10:44:28;-1.90;99.90
23188;DHT22;11762;59.878;17.686;2023-03-07T10:46:58;-1.80;99.90
23188;DHT22;11762;59.878;17.686;2023-03-07T10:49:28;-2.00;99.90
23188;DHT22;11762;59.878;17.686;2023-03-07T10:51:59;-1.90;99.90
23188;DHT22;11762;59.878;17.686;2023-03-07T10:54:31;-1.80;99.90
23188;DHT22;11762;59.878;17.686;2023-03-07T10:57:07;-1.80;99.90
23188;DHT22;11762;59.878;17.686;2023-03-07T10:59:35;-1.70;99.90
23188;DHT22;11762;59.878;17.686;2023-03-07T11:02:25;-1.70;99.90
23188;DHT22;11762;59.878;17.686;2023-03-07T11:04:53;-1.60;99.90
23188;DHT22;11762;59.878;17.686;2023-03-07T11:07:25;-1.60;99.90
23188;DHT22;11762;59.878;17.686;2023-03-07T11:09:55;-1.70;99.90
23188;DHT22;11762;59.878;17.686;2023-03-07T11:12:24;-1.70;99.90
23188;DHT22;11762;59.878;17.686;2023-03-07T11:14:53;-1.60;99.90
23188;DHT22;11762;59.878;17.686;2023-03-07T11:17:21;-1.60;99.90
23188;DHT22;11762;59.878;17.686;2023-03-07T11:19:52;-1.60;99.90
23188;DHT22;11762;59.878;17.686;2023-03-07T11:22:24;-1.60;99.90
23188;DHT22;11762;59.878;17.686;2023-03-07T11:24:57;-1.60;99.90
23188;DHT22;11762;59.878;17.686;2023-03-07T11:27:31;-1.60;99.90
23188;DHT22;11762;59.878;17.686;2023-03-07T11:30:19;-1.70;99.90
23188;DHT22;11762;59.878;17.686;2023-03-07T11:32:52;-1.60;99.90
23188;DHT22;11762;59.878;17.686;2023-03-07T11:35:28;-1.60;99.90
23188;DHT22;11762;59.878;17.686;2023-03-07T11:38:02;-1.50;99.90
23188;DHT22;11762;59.878;17.686;2023-03-07T11:40:42;-1.50;99.90
23188;DHT22;11762;59.878;17.686;2023-03-07T11:43:18;-1.40;99.90
23188;DHT22;11762;59.878;17.686;2023-03-07T11:45:50;-1.60;99.90
23188;DHT22;11762;59.878;17.686;2023-03-07T11:48:35;-1.60;99.90
23188;DHT22;11762;59.878;17.686;2023-03-07T11:51:05;-1.50;99.90
23188;DHT22;11762;59.878;17.686;2023-03-07T11:53:46;-1.40;99.90
23188;DHT22;11762;59.878;17.686;2023-03-07T11:56:23;-1.40;99.90
23188;DHT22;11762;59.878;17.686;2023-03-07T11:59:11;-1.50;99.90
23188;DHT22;11762;59.878;17.686;2023-03-07T12:01:48;-1.60;99.90
23188;DHT22;11762;59.878;17.686;2023-03-07T12:04:34;-1.70;99.90
23188;DHT22;11762;59.878;17.686;2023-03-07T12:07:17;-1.60;99.90
23188;DHT22;11762;59.878;17.686;2023-03-07T12:09:53;-1.60;99.90
23188;DHT22;11762;59.878;17.686;2023-03-07T12:12:33;-1.70;99.90
23188;DHT22;11762;59.878;17.686;2023-03-07T12:15:12;-1.60;99.90
23188;DHT22;11762;59.878;17.686;2023-03-07T12:17:52;-1.70;99.90
23188;DHT22;11762;59.878;17.686;2023-03-07T12:20:28;-1.70;99.90
23188;DHT22;11762;59.878;17.686;2023-03-07T12:23:06;-1.60;99.90
23188;DHT22;11762;59.878;17.686;2023-03-07T12:25:36;-1.50;99.90
23188;DHT22;11762;59.878;17.686;2023-03-07T12:28:11;-1.50;99.90
23188;DHT22;11762;59.878;17.686;2023-03-07T12:30:57;-1.50;99.90
23188;DHT22;11762;59.878;17.686;2023-03-07T12:33:41;-1.40;99.90
23188;DHT22;11762;59.878;17.686;2023-03-07T12:36:11;-1.40;99.90
23188;DHT22;11762;59.878;17.686;2023-03-07T12:38:46;-1.50;99.90
23188;DHT22;11762;59.878;17.686;2023-03-07T12:41:24;-1.30;99.90
23188;DHT22;11762;59.878;17.686;2023-03-07T12:43:57;-1.30;99.90
23188;DHT22;11762;59.878;17.686;2023-03-07T12:46:31;-1.40;99.90
23188;DHT22;11762;59.878;17.686;2023-03-07T12:49:09;-1.50;99.90
23188;DHT22;11762;59.878;17.686;2023-03-07T12:51:43;-1.50;99.90
23188;DHT22;11762;59.878;17.686;2023-03-07T12:54:17;-1.50;99.90
23188;DHT22;11762;59.878;17.686;2023-03-07T12:56:49;-1.40;99.90
23188;DHT22;11762;59.878;17.686;2023-03-07T12:59:20;-1.50;99.90
23188;DHT22;11762;59.878;17.686;2023-03-07T13:01:51;-1.40;99.90
23188;DHT22;11762;59.878;17.686;2023-03-07T13:04:23;-1.40;99.90
23188;DHT22;11762;59.878;17.686;2023-03-07T13:06:55;-1.40;99.90
23188;DHT22;11762;59.878;17.686;2023-03-07T13:09:26;-1.40;99.90
23188;DHT22;11762;59.878;17.686;2023-03-07T13:15:04;-1.30;99.90
23188;DHT22;11762;59.878;17.686;2023-03-07T13:17:53;-1.40;99.90
23188;DHT22;11762;59.878;17.686;2023-03-07T13:20:39;-1.40;99.90
23188;DHT22;11762;59.878;17.686;2023-03-07T13:23:22;-1.40;99.90
23188;DHT22;11762;59.878;17.686;2023-03-07T13:26:10;-1.30;99.90
23188;DHT22;11762;59.878;17.686;2023-03-07T13:28:55;-1.30;99.90
23188;DHT22;11762;59.878;17.686;2023-03-07T13:31:40;-1.30;99.90
23188;DHT22;11762;59.878;17.686;2023-03-07T13:34:40;-1.30;99.90
23188;DHT22;11762;59.878;17.686;2023-03-07T13:40:23;-1.30;99.90
23188;DHT22;11762;59.878;17.686;2023-03-07T13:42:51;-1.30;99.90
23188;DHT22;11762;59.878;17.686;2023-03-07T13:45:46;-1.30;99.90
23188;DHT22;11762;59.878;17.686;2023-03-07T13:51:26;-1.40;99.90
23188;DHT22;11762;59.878;17.686;2023-03-07T13:53:59;-1.40;99.90
23188;DHT22;11762;59.878;17.686;2023-03-07T13:56:29;-1.40;99.90
23188;DHT22;11762;59.878;17.686;2023-03-07T13:59:02;-1.40;99.90
23188;DHT22;11762;59.878;17.686;2023-03-07T14:01:35;-1.40;99.90
23188;DHT22;11762;59.878;17.686;2023-03-07T14:04:12;-1.40;99.90
23188;DHT22;11762;59.878;17.686;2023-03-07T14:06:44;-1.40;99.90
23188;DHT22;11762;59.878;17.686;2023-03-07T14:09:16;-1.40;99.90
23188;DHT22;11762;59.878;17.686;2023-03-07T14:11:50;-1.40;99.90
23188;DHT22;11762;59.878;17.686;2023-03-07T14:14:40;-1.50;99.90
23188;DHT22;11762;59.878;17.686;2023-03-07T14:17:20;-1.50;99.90
23188;DHT22;11762;59.878;17.686;2023-03-07T14:19:57;-1.60;99.90
23188;DHT22;11762;59.878;17.686;2023-03-07T14:22:54;-1.60;99.90
23188;DHT22;11762;59.878;17.686;2023-03-07T14:25:24;-1.60;99.90
23188;DHT22;11762;59.878;17.686;2023-03-07T14:27:56;-1.60;99.90
23188;DHT22;11762;59.878;17.686;2023-03-07T14:30:25;-1.60;99.90
23188;DHT22;11762;59.878;17.686;2023-03-07T14:32:52;-1.60;99.90
23188;DHT22;11762;59.878;17.686;2023-03-07T14:35:35;-1.60;99.90
23188;DHT22;11762;59.878;17.686;2023-03-07T14:38:05;-1.60;99.90
23188;DHT22;11762;59.878;17.686;2023-03-07T14:40:41;-1.60;99.90
23188;DHT22;11762;59.878;17.686;2023-03-07T14:43:27;-1.60;99.90
23188;DHT22;11762;59.878;17.686;2023-03-07T14:46:02;-1.60;99.90
23188;DHT22;11762;59.878;17.686;2023-03-07T14:48:54;-1.70;99.90
23188;DHT22;11762;59.878;17.686;2023-03-07T14:51:27;-1.70;99.90
23188;DHT22;11762;59.878;17.686;2023-03-07T14:53:56;-1.70;99.90
23188;DHT22;11762;59.878;17.686;2023-03-07T14:56:25;-1.80;99.90
23188;DHT22;11762;59.878;17.686;2023-03-07T14:58:54;-1.70;99.90
23188;DHT22;11762;59.878;17.686;2023-03-07T15:01:28;-1.80;99.90
23188;DHT22;11762;59.878;17.686;2023-03-07T15:03:57;-1.80;99.90
23188;DHT22;11762;59.878;17.686;2023-03-07T15:06:26;-1.80;99.90
23188;DHT22;11762;59.878;17.686;2023-03-07T15:08:56;-1.80;99.90
23188;DHT22;11762;59.878;17.686;2023-03-07T15:11:28;-1.80;99.90
23188;DHT22;11762;59.878;17.686;2023-03-07T15:13:58;-1.80;99.90
23188;DHT22;11762;59.878;17.686;2023-03-07T15:16:29;-1.90;99.90
23188;DHT22;11762;59.878;17.686;2023-03-07T15:19:00;-1.90;99.90
23188;DHT22;11762;59.878;17.686;2023-03-07T15:21:37;-1.90;99.90
23188;DHT22;11762;59.878;17.686;2023-03-07T15:24:05;-1.90;99.90
23188;DHT22;11762;59.878;17.686;2023-03-07T15:26:47;-1.90;99.90
23188;DHT22;11762;59.878;17.686;2023-03-07T15:29:14;-1.90;99.90
23188;DHT22;11762;59.878;17.686;2023-03-07T15:31:49;-1.90;99.90
23188;DHT22;11762;59.878;17.686;2023-03-07T15:34:21;-1.90;99.90
23188;DHT22;11762;59.878;17.686;2023-03-07T15:36:50;-2.00;99.90
23188;DHT22;11762;59.878;17.686;2023-03-07T15:39:31;-1.90;99.90
23188;DHT22;11762;59.878;17.686;2023-03-07T15:42:01;-1.90;99.90
23188;DHT22;11762;59.878;17.686;2023-03-07T15:44:28;-2.00;99.90
23188;DHT22;11762;59.878;17.686;2023-03-07T15:46:58;-1.90;99.90